»·PEaware :: SKY465 KABQ-KSKX

SKY465 :: KABQ-KSKX

FLIGHT INFORMATION

Flight Status: Arrived
Operator:
Sky High Charters
More flights by this operator :: More flights under this callsign
Pilot: Justin C. (30559)
Aircraft: BEECH AIRCRAFT A90-E90 KING AIR
(BE9L)
More flights by this aircraft type
Origin: KABQ Albuquerque Intl Sunport
United States
Destination: KSKX Taos Regl
United States
More flights between these airports :: More routes between these airports
Route: +ABQ V263 SAF V83 TAS
File this flight plan on PilotEdge
Remarks:
Altitude:
(Current/Filed)
11,000ft
Speed:
(Current/Filed)
180kts
Departed: 03-Aug-20 09:41 AM
Arrived: 03-Aug-20 10:27 AM
Distance/Time
Traveled:
97nm/0:46
Distance/Time
To Go:
Arrived

Flight Plot

Page will automatically refresh every two minutes.

Flight plan parsing failed; only flown route is shown


Map Options




Map Legend


Flown Route
Filed Route
Departure Airport
Arrival Airport
Navaid (VOR, NDB)
Fix

Horizontal Profiles

Position Reports

Time Latitude Longitude Heading Altitude Ground
Speed
03-Aug-20 09:04 35.036614 -106.617461 137 5310ft 0kts
03-Aug-20 09:04 35.036614 -106.617461 137 5310ft 0kts
03-Aug-20 09:05 35.036614 -106.617461 137 5310ft 0kts
03-Aug-20 09:06 35.036614 -106.617461 137 5310ft 0kts
03-Aug-20 09:07 35.036614 -106.617461 137 5310ft 0kts
03-Aug-20 09:08 35.036614 -106.617461 137 5310ft 0kts
03-Aug-20 09:09 35.036614 -106.617461 137 5310ft 0kts
03-Aug-20 09:10 35.036614 -106.617461 137 5310ft 0kts
03-Aug-20 09:11 35.036614 -106.617461 137 5310ft 0kts
03-Aug-20 09:12 35.036614 -106.617461 137 5310ft 0kts
03-Aug-20 09:13 35.036614 -106.617461 137 5310ft 0kts
03-Aug-20 09:14 35.036614 -106.617461 137 5310ft 0kts
03-Aug-20 09:15 35.036614 -106.617461 137 5310ft 0kts
03-Aug-20 09:16 35.036614 -106.617461 137 5310ft 0kts
03-Aug-20 09:17 35.036614 -106.617461 137 5310ft 0kts
03-Aug-20 09:18 35.036614 -106.617461 137 5310ft 0kts
03-Aug-20 09:19 35.036614 -106.617461 137 5310ft 0kts
03-Aug-20 09:20 35.036614 -106.617461 137 5310ft 0kts
03-Aug-20 09:21 35.036614 -106.617461 137 5310ft 0kts
03-Aug-20 09:22 35.036614 -106.617461 137 5310ft 0kts
03-Aug-20 09:23 35.036614 -106.617461 137 5310ft 0kts
03-Aug-20 09:24 35.036614 -106.617461 138 5310ft 0kts
03-Aug-20 09:25 35.036614 -106.617461 138 5310ft 0kts
03-Aug-20 09:26 35.036614 -106.617461 137 5310ft 0kts
03-Aug-20 09:27 35.036614 -106.617461 137 5310ft 0kts
03-Aug-20 09:28 35.036614 -106.617461 137 5310ft 0kts
03-Aug-20 09:29 35.036614 -106.617461 137 5310ft 0kts
03-Aug-20 09:30 35.036614 -106.617461 137 5310ft 0kts
03-Aug-20 09:31 35.036614 -106.617461 137 5310ft 0kts
03-Aug-20 09:32 35.036132 -106.617324 184 5310ft 4kts
03-Aug-20 09:33 35.034674 -106.618766 185 5308ft 5kts
03-Aug-20 09:34 35.033057 -106.619720 224 5308ft 10kts
03-Aug-20 09:35 35.030464 -106.622835 224 5308ft 15kts
03-Aug-20 09:36 35.027091 -106.626881 225 5304ft 18kts
03-Aug-20 09:37 35.023961 -106.630671 225 5288ft 9kts
03-Aug-20 09:38 35.022999 -106.631265 146 5284ft 0kts
03-Aug-20 09:39 35.022805 -106.631062 133 5286ft 5kts
03-Aug-20 09:40 35.031331 -106.619580 46 5326ft 124kts
03-Aug-20 09:41 35.057425 -106.586629 37 6835ft 129kts
03-Aug-20 09:42 35.087562 -106.554462 37 8048ft 150kts
03-Aug-20 09:43 35.119867 -106.521624 37 9031ft 160kts
03-Aug-20 09:44 35.157722 -106.483198 37 9163ft 175kts
03-Aug-20 09:45 35.195494 -106.488016 309 10086ft 165kts
03-Aug-20 09:46 35.224879 -106.530773 309 10989ft 163kts
03-Aug-20 09:47 35.255353 -106.574348 309 11138ft 176kts
03-Aug-20 09:48 35.285442 -106.617669 309 11004ft 152kts
03-Aug-20 09:49 35.311644 -106.655199 309 11011ft 139kts
03-Aug-20 09:50 35.339701 -106.682665 10 10993ft 138kts
03-Aug-20 09:51 35.369877 -106.709998 325 11028ft 175kts
03-Aug-20 09:52 35.415135 -106.686019 40 10988ft 199kts
03-Aug-20 09:53 35.459316 -106.644902 19 10989ft 198kts
03-Aug-20 09:54 35.511401 -106.619899 18 10991ft 199kts
03-Aug-20 09:55 35.525327 -106.558090 86 10995ft 196kts
03-Aug-20 09:56 35.527599 -106.491809 86 11001ft 192kts
03-Aug-20 09:57 35.529725 -106.425500 86 11008ft 192kts
03-Aug-20 09:58 35.531791 -106.359503 86 11013ft 191kts
03-Aug-20 09:59 35.533825 -106.293367 87 11016ft 191kts
03-Aug-20 10:00 35.535806 -106.227751 87 11015ft 191kts
03-Aug-20 10:01 35.537755 -106.161999 87 11014ft 192kts
03-Aug-20 10:02 35.539672 -106.096141 87 11012ft 192kts
03-Aug-20 10:03 35.572369 -106.060817 5 11013ft 182kts
03-Aug-20 10:04 35.621160 -106.053187 3 10995ft 159kts
03-Aug-20 10:05 35.660965 -106.047292 2 10995ft 131kts
03-Aug-20 10:06 35.696997 -106.042015 2 10807ft 126kts
03-Aug-20 10:07 35.733139 -106.036717 3 10479ft 133kts
03-Aug-20 10:08 35.773032 -106.030855 3 10822ft 163kts
03-Aug-20 10:09 35.820957 -106.023771 4 11087ft 179kts
03-Aug-20 10:10 35.870721 -106.016408 4 11092ft 178kts
03-Aug-20 10:11 35.919957 -106.009130 4 11096ft 177kts
03-Aug-20 10:12 35.968958 -106.001880 4 11101ft 176kts
03-Aug-20 10:13 36.018570 -105.994547 4 11105ft 176kts
03-Aug-20 10:14 36.067450 -105.987290 4 11106ft 176kts
03-Aug-20 10:15 36.116117 -105.980053 4 11107ft 174kts
03-Aug-20 10:16 36.157717 -105.973846 3 11101ft 130kts
03-Aug-20 10:17 36.192947 -105.968622 3 11049ft 132kts
03-Aug-20 10:18 36.236551 -105.962123 4 11053ft 174kts
03-Aug-20 10:19 36.285883 -105.949182 38 11064ft 189kts
03-Aug-20 10:20 36.326715 -105.903342 40 10771ft 203kts
03-Aug-20 10:21 36.362952 -105.847431 56 10178ft 216kts
03-Aug-20 10:22 36.390075 -105.797842 53 9269ft 185kts
03-Aug-20 10:23 36.416576 -105.749631 49 8694ft 146kts
03-Aug-20 10:24 36.437817 -105.709832 55 7584ft 118kts
03-Aug-20 10:25 36.454086 -105.680012 55 7136ft 97kts
03-Aug-20 10:26 36.460545 -105.670432 270 7091ft 14kts
03-Aug-20 10:27 36.459853 -105.672096 233 7091ft 0kts
03-Aug-20 10:28 36.459853 -105.672096 233 7091ft 0kts
03-Aug-20 10:29 36.459853 -105.672096 233 7091ft 0kts
03-Aug-20 10:30 36.459853 -105.672096 233 7091ft 0kts
03-Aug-20 10:31 36.459853 -105.672096 233 7091ft 0kts
03-Aug-20 10:32 36.459853 -105.672096 233 7091ft 0kts
03-Aug-20 10:33 36.459853 -105.672096 233 7091ft 0kts
03-Aug-20 10:34 36.459853 -105.672096 233 7091ft 0kts
03-Aug-20 10:35 36.459853 -105.672096 233 7091ft 0kts
03-Aug-20 10:36 36.459853 -105.672096 233 7091ft 0kts
03-Aug-20 10:37 36.459853 -105.672096 233 7091ft 0kts
03-Aug-20 10:38 36.459853 -105.672096 233 7091ft 0kts
03-Aug-20 10:39 36.459853 -105.672096 233 7091ft 0kts
03-Aug-20 10:40 36.459853 -105.672096 233 7091ft 0kts

Navigation Log

Ident Type
Flight plan parsing failed, navigation log unavailable